sensor_id;sensor_type;location;lat;lon;timestamp;P1;durP1;ratioP1;P2;durP2;ratioP2
79243;SDS011;68672;42.676;23.356;2023-05-24T00:02:06;10.60;;;5.50;;
79243;SDS011;68672;42.676;23.356;2023-05-24T00:04:37;12.30;;;6.38;;
79243;SDS011;68672;42.676;23.356;2023-05-24T00:07:04;11.73;;;6.32;;
79243;SDS011;68672;42.676;23.356;2023-05-24T00:09:32;8.63;;;5.80;;
79243;SDS011;68672;42.676;23.356;2023-05-24T00:11:58;8.15;;;6.07;;
79243;SDS011;68672;42.676;23.356;2023-05-24T00:14:23;8.27;;;5.80;;
79243;SDS011;68672;42.676;23.356;2023-05-24T00:16:49;9.90;;;6.85;;
79243;SDS011;68672;42.676;23.356;2023-05-24T00:19:16;8.90;;;6.15;;
79243;SDS011;68672;42.676;23.356;2023-05-24T00:21:45;8.73;;;5.50;;
79243;SDS011;68672;42.676;23.356;2023-05-24T00:24:13;8.52;;;6.10;;
79243;SDS011;68672;42.676;23.356;2023-05-24T00:26:41;6.72;;;5.03;;
79243;SDS011;68672;42.676;23.356;2023-05-24T00:29:06;9.82;;;5.40;;
79243;SDS011;68672;42.676;23.356;2023-05-24T00:31:32;7.28;;;5.40;;
79243;SDS011;68672;42.676;23.356;2023-05-24T00:33:58;8.77;;;6.22;;
79243;SDS011;68672;42.676;23.356;2023-05-24T00:36:23;7.45;;;4.97;;
79243;SDS011;68672;42.676;23.356;2023-05-24T00:38:49;9.95;;;5.47;;
79243;SDS011;68672;42.676;23.356;2023-05-24T00:41:17;6.90;;;4.88;;
79243;SDS011;68672;42.676;23.356;2023-05-24T00:43:43;8.75;;;6.13;;
79243;SDS011;68672;42.676;23.356;2023-05-24T00:48:39;6.88;;;5.22;;
79243;SDS011;68672;42.676;23.356;2023-05-24T00:51:05;7.10;;;5.63;;
79243;SDS011;68672;42.676;23.356;2023-05-24T00:53:31;9.93;;;6.00;;
79243;SDS011;68672;42.676;23.356;2023-05-24T00:55:59;7.97;;;5.22;;
79243;SDS011;68672;42.676;23.356;2023-05-24T00:58:25;8.65;;;5.55;;
79243;SDS011;68672;42.676;23.356;2023-05-24T01:00:56;6.53;;;5.78;;
79243;SDS011;68672;42.676;23.356;2023-05-24T01:03:23;5.75;;;4.97;;
79243;SDS011;68672;42.676;23.356;2023-05-24T01:05:54;6.55;;;5.57;;
79243;SDS011;68672;42.676;23.356;2023-05-24T01:14:26;8.90;;;5.57;;
79243;SDS011;68672;42.676;23.356;2023-05-24T01:28:15;5.82;;;3.95;;
79243;SDS011;68672;42.676;23.356;2023-05-24T01:30:42;9.07;;;4.88;;
79243;SDS011;68672;42.676;23.356;2023-05-24T01:33:09;6.30;;;5.20;;
79243;SDS011;68672;42.676;23.356;2023-05-24T01:35:35;6.45;;;5.18;;
79243;SDS011;68672;42.676;23.356;2023-05-24T01:38:04;6.55;;;5.28;;
79243;SDS011;68672;42.676;23.356;2023-05-24T01:40:31;6.07;;;4.82;;
79243;SDS011;68672;42.676;23.356;2023-05-24T01:42:58;8.35;;;5.53;;
79243;SDS011;68672;42.676;23.356;2023-05-24T01:45:39;5.57;;;4.25;;
79243;SDS011;68672;42.676;23.356;2023-05-24T01:48:51;7.15;;;5.10;;
79243;SDS011;68672;42.676;23.356;2023-05-24T01:51:07;5.38;;;4.53;;
79243;SDS011;68672;42.676;23.356;2023-05-24T01:53:40;6.57;;;4.70;;
79243;SDS011;68672;42.676;23.356;2023-05-24T01:56:08;5.60;;;4.35;;
79243;SDS011;68672;42.676;23.356;2023-05-24T01:58:35;11.55;;;4.90;;
79243;SDS011;68672;42.676;23.356;2023-05-24T02:01:04;6.25;;;5.22;;
79243;SDS011;68672;42.676;23.356;2023-05-24T02:03:30;4.55;;;4.05;;
79243;SDS011;68672;42.676;23.356;2023-05-24T02:05:56;7.65;;;4.82;;
79243;SDS011;68672;42.676;23.356;2023-05-24T02:08:21;6.75;;;4.60;;
79243;SDS011;68672;42.676;23.356;2023-05-24T02:10:47;6.38;;;4.75;;
79243;SDS011;68672;42.676;23.356;2023-05-24T02:13:15;7.22;;;5.03;;
79243;SDS011;68672;42.676;23.356;2023-05-24T02:15:42;9.32;;;5.07;;
79243;SDS011;68672;42.676;23.356;2023-05-24T02:18:08;7.53;;;5.45;;
79243;SDS011;68672;42.676;23.356;2023-05-24T02:20:35;7.03;;;4.38;;
79243;SDS011;68672;42.676;23.356;2023-05-24T02:23:01;5.40;;;4.53;;
79243;SDS011;68672;42.676;23.356;2023-05-24T02:25:28;6.38;;;4.93;;
79243;SDS011;68672;42.676;23.356;2023-05-24T02:27:54;6.78;;;4.93;;
79243;SDS011;68672;42.676;23.356;2023-05-24T02:30:19;6.63;;;4.72;;
79243;SDS011;68672;42.676;23.356;2023-05-24T02:32:44;7.45;;;4.65;;
79243;SDS011;68672;42.676;23.356;2023-05-24T02:35:13;5.93;;;5.10;;
79243;SDS011;68672;42.676;23.356;2023-05-24T02:37:39;6.03;;;4.82;;
79243;SDS011;68672;42.676;23.356;2023-05-24T02:40:07;7.15;;;5.03;;
79243;SDS011;68672;42.676;23.356;2023-05-24T02:42:33;6.47;;;5.13;;
79243;SDS011;68672;42.676;23.356;2023-05-24T02:44:59;7.95;;;4.82;;
79243;SDS011;68672;42.676;23.356;2023-05-24T02:47:24;8.60;;;6.13;;
79243;SDS011;68672;42.676;23.356;2023-05-24T02:49:53;5.75;;;4.78;;
79243;SDS011;68672;42.676;23.356;2023-05-24T02:52:19;9.50;;;5.40;;
79243;SDS011;68672;42.676;23.356;2023-05-24T02:54:55;8.07;;;5.28;;
79243;SDS011;68672;42.676;23.356;2023-05-24T02:57:21;9.05;;;5.10;;
79243;SDS011;68672;42.676;23.356;2023-05-24T02:59:49;8.52;;;4.90;;
79243;SDS011;68672;42.676;23.356;2023-05-24T03:02:15;7.10;;;5.13;;
79243;SDS011;68672;42.676;23.356;2023-05-24T03:04:41;6.15;;;5.07;;
79243;SDS011;68672;42.676;23.356;2023-05-24T03:07:07;7.28;;;5.10;;
79243;SDS011;68672;42.676;23.356;2023-05-24T03:09:32;5.45;;;4.40;;
79243;SDS011;68672;42.676;23.356;2023-05-24T03:12:04;7.00;;;4.32;;
79243;SDS011;68672;42.676;23.356;2023-05-24T03:14:30;6.18;;;4.97;;
79243;SDS011;68672;42.676;23.356;2023-05-24T03:16:55;6.00;;;4.80;;
79243;SDS011;68672;42.676;23.356;2023-05-24T03:19:24;5.63;;;4.72;;
79243;SDS011;68672;42.676;23.356;2023-05-24T03:21:49;6.65;;;4.85;;
79243;SDS011;68672;42.676;23.356;2023-05-24T03:24:17;7.88;;;5.03;;
79243;SDS011;68672;42.676;23.356;2023-05-24T03:26:43;5.53;;;4.85;;
79243;SDS011;68672;42.676;23.356;2023-05-24T03:29:11;6.35;;;5.15;;
79243;SDS011;68672;42.676;23.356;2023-05-24T03:31:39;6.25;;;4.60;;
79243;SDS011;68672;42.676;23.356;2023-05-24T03:34:05;6.82;;;5.13;;
79243;SDS011;68672;42.676;23.356;2023-05-24T03:36:31;8.27;;;5.57;;
79243;SDS011;68672;42.676;23.356;2023-05-24T03:38:56;13.75;;;5.47;;
79243;SDS011;68672;42.676;23.356;2023-05-24T03:41:23;9.38;;;5.80;;
79243;SDS011;68672;42.676;23.356;2023-05-24T03:43:48;8.98;;;5.50;;
79243;SDS011;68672;42.676;23.356;2023-05-24T03:46:16;7.18;;;5.25;;
79243;SDS011;68672;42.676;23.356;2023-05-24T03:48:42;5.78;;;4.90;;
79243;SDS011;68672;42.676;23.356;2023-05-24T03:51:07;7.38;;;5.22;;
79243;SDS011;68672;42.676;23.356;2023-05-24T03:53:35;8.65;;;5.72;;
79243;SDS011;68672;42.676;23.356;2023-05-24T03:56:00;6.80;;;6.10;;
79243;SDS011;68672;42.676;23.356;2023-05-24T03:58:26;6.88;;;4.85;;
79243;SDS011;68672;42.676;23.356;2023-05-24T04:00:51;7.38;;;5.40;;
79243;SDS011;68672;42.676;23.356;2023-05-24T04:03:17;9.35;;;6.00;;
79243;SDS011;68672;42.676;23.356;2023-05-24T04:05:44;8.30;;;5.32;;
79243;SDS011;68672;42.676;23.356;2023-05-24T04:08:09;9.95;;;5.78;;
79243;SDS011;68672;42.676;23.356;2023-05-24T04:10:39;7.03;;;5.65;;
79243;SDS011;68672;42.676;23.356;2023-05-24T04:13:05;8.05;;;6.15;;
79243;SDS011;68672;42.676;23.356;2023-05-24T04:15:30;9.18;;;5.95;;
79243;SDS011;68672;42.676;23.356;2023-05-24T04:17:56;9.82;;;6.40;;
79243;SDS011;68672;42.676;23.356;2023-05-24T04:20:22;12.20;;;6.40;;
79243;SDS011;68672;42.676;23.356;2023-05-24T04:22:49;7.63;;;6.40;;
79243;SDS011;68672;42.676;23.356;2023-05-24T04:25:17;8.90;;;6.97;;
79243;SDS011;68672;42.676;23.356;2023-05-24T04:27:43;11.30;;;7.05;;
79243;SDS011;68672;42.676;23.356;2023-05-24T04:30:09;12.05;;;7.60;;
79243;SDS011;68672;42.676;23.356;2023-05-24T04:32:34;12.32;;;7.72;;
79243;SDS011;68672;42.676;23.356;2023-05-24T04:35:00;9.52;;;6.78;;
79243;SDS011;68672;42.676;23.356;2023-05-24T04:37:29;9.75;;;6.68;;
79243;SDS011;68672;42.676;23.356;2023-05-24T04:39:55;11.35;;;7.35;;
79243;SDS011;68672;42.676;23.356;2023-05-24T04:42:21;8.38;;;6.80;;
79243;SDS011;68672;42.676;23.356;2023-05-24T04:44:46;8.77;;;6.70;;
79243;SDS011;68672;42.676;23.356;2023-05-24T04:47:12;8.90;;;6.35;;
79243;SDS011;68672;42.676;23.356;2023-05-24T04:49:38;9.32;;;6.35;;
79243;SDS011;68672;42.676;23.356;2023-05-24T04:52:04;10.32;;;6.60;;
79243;SDS011;68672;42.676;23.356;2023-05-24T04:54:30;9.98;;;6.95;;
79243;SDS011;68672;42.676;23.356;2023-05-24T04:56:55;8.57;;;7.07;;
79243;SDS011;68672;42.676;23.356;2023-05-24T04:59:21;12.60;;;7.10;;
79243;SDS011;68672;42.676;23.356;2023-05-24T05:01:49;9.65;;;6.38;;
79243;SDS011;68672;42.676;23.356;2023-05-24T05:04:14;10.65;;;6.80;;
79243;SDS011;68672;42.676;23.356;2023-05-24T05:06:40;10.63;;;6.45;;
79243;SDS011;68672;42.676;23.356;2023-05-24T05:09:08;8.55;;;6.35;;
79243;SDS011;68672;42.676;23.356;2023-05-24T05:11:35;7.18;;;6.45;;
79243;SDS011;68672;42.676;23.356;2023-05-24T05:14:01;11.07;;;6.10;;
79243;SDS011;68672;42.676;23.356;2023-05-24T05:16:26;7.90;;;6.38;;
79243;SDS011;68672;42.676;23.356;2023-05-24T05:18:52;7.47;;;6.07;;
79243;SDS011;68672;42.676;23.356;2023-05-24T05:21:17;8.27;;;6.32;;
79243;SDS011;68672;42.676;23.356;2023-05-24T05:23:43;11.88;;;7.38;;
79243;SDS011;68672;42.676;23.356;2023-05-24T05:26:12;8.05;;;6.25;;
79243;SDS011;68672;42.676;23.356;2023-05-24T05:28:37;6.65;;;5.28;;
79243;SDS011;68672;42.676;23.356;2023-05-24T05:31:03;10.32;;;5.63;;
79243;SDS011;68672;42.676;23.356;2023-05-24T05:33:31;7.25;;;5.72;;
79243;SDS011;68672;42.676;23.356;2023-05-24T05:35:57;7.35;;;5.85;;
79243;SDS011;68672;42.676;23.356;2023-05-24T05:38:22;7.18;;;5.65;;
79243;SDS011;68672;42.676;23.356;2023-05-24T05:40:48;7.63;;;6.00;;
79243;SDS011;68672;42.676;23.356;2023-05-24T05:43:13;10.02;;;5.82;;
79243;SDS011;68672;42.676;23.356;2023-05-24T05:45:39;13.02;;;6.57;;
79243;SDS011;68672;42.676;23.356;2023-05-24T05:48:04;8.85;;;5.60;;
79243;SDS011;68672;42.676;23.356;2023-05-24T05:50:30;8.57;;;5.53;;
79243;SDS011;68672;42.676;23.356;2023-05-24T05:52:55;8.23;;;6.55;;
79243;SDS011;68672;42.676;23.356;2023-05-24T05:55:22;8.35;;;5.68;;
79243;SDS011;68672;42.676;23.356;2023-05-24T05:57:47;7.93;;;5.97;;
79243;SDS011;68672;42.676;23.356;2023-05-24T06:00:13;8.40;;;6.28;;
79243;SDS011;68672;42.676;23.356;2023-05-24T06:02:39;7.82;;;5.85;;
79243;SDS011;68672;42.676;23.356;2023-05-24T06:05:04;7.00;;;5.45;;
79243;SDS011;68672;42.676;23.356;2023-05-24T06:07:30;8.10;;;5.47;;
79243;SDS011;68672;42.676;23.356;2023-05-24T06:09:56;8.15;;;5.88;;
79243;SDS011;68672;42.676;23.356;2023-05-24T06:12:21;7.85;;;5.93;;
79243;SDS011;68672;42.676;23.356;2023-05-24T06:14:46;10.23;;;6.18;;
79243;SDS011;68672;42.676;23.356;2023-05-24T06:17:14;6.80;;;5.38;;
79243;SDS011;68672;42.676;23.356;2023-05-24T06:19:42;8.70;;;5.35;;
79243;SDS011;68672;42.676;23.356;2023-05-24T06:22:08;7.43;;;5.57;;
79243;SDS011;68672;42.676;23.356;2023-05-24T06:24:36;8.52;;;5.18;;
79243;SDS011;68672;42.676;23.356;2023-05-24T06:27:03;7.32;;;5.40;;
79243;SDS011;68672;42.676;23.356;2023-05-24T06:29:31;10.57;;;5.13;;
79243;SDS011;68672;42.676;23.356;2023-05-24T06:31:57;8.88;;;5.97;;
79243;SDS011;68672;42.676;23.356;2023-05-24T06:34:22;8.50;;;5.60;;
79243;SDS011;68672;42.676;23.356;2023-05-24T06:36:53;7.80;;;5.65;;
79243;SDS011;68672;42.676;23.356;2023-05-24T06:39:19;6.93;;;5.13;;
79243;SDS011;68672;42.676;23.356;2023-05-24T06:41:45;8.73;;;5.60;;
79243;SDS011;68672;42.676;23.356;2023-05-24T06:44:11;6.38;;;5.38;;
79243;SDS011;68672;42.676;23.356;2023-05-24T06:46:36;8.50;;;5.53;;
79243;SDS011;68672;42.676;23.356;2023-05-24T06:49:02;8.05;;;5.70;;
79243;SDS011;68672;42.676;23.356;2023-05-24T06:51:33;9.52;;;6.38;;
79243;SDS011;68672;42.676;23.356;2023-05-24T06:53:59;6.78;;;4.78;;
79243;SDS011;68672;42.676;23.356;2023-05-24T06:56:24;8.27;;;6.10;;
79243;SDS011;68672;42.676;23.356;2023-05-24T06:58:53;7.22;;;5.80;;
79243;SDS011;68672;42.676;23.356;2023-05-24T07:01:19;8.40;;;5.82;;
79243;SDS011;68672;42.676;23.356;2023-05-24T07:03:44;7.35;;;6.00;;
79243;SDS011;68672;42.676;23.356;2023-05-24T07:06:10;9.50;;;6.10;;
79243;SDS011;68672;42.676;23.356;2023-05-24T07:08:40;9.73;;;6.65;;
79243;SDS011;68672;42.676;23.356;2023-05-24T07:11:06;9.57;;;7.18;;
79243;SDS011;68672;42.676;23.356;2023-05-24T07:13:35;8.55;;;6.25;;
79243;SDS011;68672;42.676;23.356;2023-05-24T07:16:00;11.90;;;7.13;;
79243;SDS011;68672;42.676;23.356;2023-05-24T07:18:26;9.13;;;6.40;;
79243;SDS011;68672;42.676;23.356;2023-05-24T07:20:51;11.63;;;6.72;;
79243;SDS011;68672;42.676;23.356;2023-05-24T07:23:19;8.05;;;5.82;;
79243;SDS011;68672;42.676;23.356;2023-05-24T07:25:47;6.97;;;5.25;;
79243;SDS011;68672;42.676;23.356;2023-05-24T07:28:13;8.00;;;5.45;;
79243;SDS011;68672;42.676;23.356;2023-05-24T07:30:39;9.23;;;4.93;;
79243;SDS011;68672;42.676;23.356;2023-05-24T07:33:05;7.55;;;4.57;;
79243;SDS011;68672;42.676;23.356;2023-05-24T07:35:34;7.25;;;4.88;;
79243;SDS011;68672;42.676;23.356;2023-05-24T07:37:59;8.07;;;5.70;;
79243;SDS011;68672;42.676;23.356;2023-05-24T07:40:25;5.93;;;4.38;;
79243;SDS011;68672;42.676;23.356;2023-05-24T07:42:50;6.97;;;5.75;;
79243;SDS011;68672;42.676;23.356;2023-05-24T07:45:16;8.80;;;6.28;;
79243;SDS011;68672;42.676;23.356;2023-05-24T07:47:41;9.50;;;5.97;;
79243;SDS011;68672;42.676;23.356;2023-05-24T07:50:07;8.10;;;5.97;;
79243;SDS011;68672;42.676;23.356;2023-05-24T07:52:32;6.63;;;5.10;;
79243;SDS011;68672;42.676;23.356;2023-05-24T07:54:59;10.20;;;5.85;;
79243;SDS011;68672;42.676;23.356;2023-05-24T07:57:24;7.63;;;5.75;;
79243;SDS011;68672;42.676;23.356;2023-05-24T07:59:50;7.07;;;5.22;;
79243;SDS011;68672;42.676;23.356;2023-05-24T08:02:15;7.38;;;4.55;;
79243;SDS011;68672;42.676;23.356;2023-05-24T08:04:41;6.45;;;4.20;;
79243;SDS011;68672;42.676;23.356;2023-05-24T08:07:07;5.75;;;4.85;;
79243;SDS011;68672;42.676;23.356;2023-05-24T08:09:33;7.13;;;5.20;;
79243;SDS011;68672;42.676;23.356;2023-05-24T08:12:00;7.25;;;4.60;;
79243;SDS011;68672;42.676;23.356;2023-05-24T08:14:26;7.72;;;5.13;;
79243;SDS011;68672;42.676;23.356;2023-05-24T08:16:52;5.20;;;4.50;;
79243;SDS011;68672;42.676;23.356;2023-05-24T08:19:17;7.15;;;4.55;;
79243;SDS011;68672;42.676;23.356;2023-05-24T08:21:43;8.60;;;4.85;;
79243;SDS011;68672;42.676;23.356;2023-05-24T08:24:09;5.90;;;4.80;;
79243;SDS011;68672;42.676;23.356;2023-05-24T08:26:34;8.52;;;4.03;;
79243;SDS011;68672;42.676;23.356;2023-05-24T08:29:02;9.23;;;4.68;;
79243;SDS011;68672;42.676;23.356;2023-05-24T08:31:29;7.85;;;4.68;;
79243;SDS011;68672;42.676;23.356;2023-05-24T08:33:54;6.80;;;5.20;;
79243;SDS011;68672;42.676;23.356;2023-05-24T08:36:21;8.70;;;5.05;;
79243;SDS011;68672;42.676;23.356;2023-05-24T08:38:47;8.18;;;4.60;;
79243;SDS011;68672;42.676;23.356;2023-05-24T08:41:12;7.45;;;4.35;;
79243;SDS011;68672;42.676;23.356;2023-05-24T08:43:37;4.60;;;4.07;;
79243;SDS011;68672;42.676;23.356;2023-05-24T08:46:03;5.72;;;3.90;;
79243;SDS011;68672;42.676;23.356;2023-05-24T08:48:29;5.78;;;3.97;;
79243;SDS011;68672;42.676;23.356;2023-05-24T08:50:57;5.18;;;3.63;;
79243;SDS011;68672;42.676;23.356;2023-05-24T08:53:23;6.32;;;4.05;;
79243;SDS011;68672;42.676;23.356;2023-05-24T08:55:49;4.93;;;3.58;;
79243;SDS011;68672;42.676;23.356;2023-05-24T08:58:21;4.80;;;3.42;;
79243;SDS011;68672;42.676;23.356;2023-05-24T09:00:46;3.25;;;2.80;;
79243;SDS011;68672;42.676;23.356;2023-05-24T09:03:12;4.13;;;3.30;;
79243;SDS011;68672;42.676;23.356;2023-05-24T09:05:37;5.85;;;3.10;;
79243;SDS011;68672;42.676;23.356;2023-05-24T09:08:05;4.63;;;2.70;;
79243;SDS011;68672;42.676;23.356;2023-05-24T09:10:32;4.63;;;3.05;;
79243;SDS011;68672;42.676;23.356;2023-05-24T09:12:58;5.25;;;3.10;;
79243;SDS011;68672;42.676;23.356;2023-05-24T09:15:26;6.00;;;3.45;;
79243;SDS011;68672;42.676;23.356;2023-05-24T09:17:52;6.80;;;3.25;;
79243;SDS011;68672;42.676;23.356;2023-05-24T09:20:18;3.65;;;2.90;;
79243;SDS011;68672;42.676;23.356;2023-05-24T09:25:14;3.80;;;2.95;;
79243;SDS011;68672;42.676;23.356;2023-05-24T09:27:45;4.45;;;3.63;;
79243;SDS011;68672;42.676;23.356;2023-05-24T09:30:14;5.60;;;3.47;;
79243;SDS011;68672;42.676;23.356;2023-05-24T09:32:40;4.03;;;2.97;;
79243;SDS011;68672;42.676;23.356;2023-05-24T09:35:17;5.80;;;2.60;;
79243;SDS011;68672;42.676;23.356;2023-05-24T09:37:43;4.00;;;3.10;;
79243;SDS011;68672;42.676;23.356;2023-05-24T09:40:17;5.93;;;3.70;;
79243;SDS011;68672;42.676;23.356;2023-05-24T09:42:46;4.35;;;3.17;;
79243;SDS011;68672;42.676;23.356;2023-05-24T09:45:15;5.10;;;2.95;;
79243;SDS011;68672;42.676;23.356;2023-05-24T09:47:41;4.45;;;3.38;;
79243;SDS011;68672;42.676;23.356;2023-05-24T09:50:12;4.90;;;3.47;;
79243;SDS011;68672;42.676;23.356;2023-05-24T09:52:38;4.47;;;3.10;;
79243;SDS011;68672;42.676;23.356;2023-05-24T09:58:08;3.75;;;3.10;;
79243;SDS011;68672;42.676;23.356;2023-05-24T10:00:39;5.40;;;3.70;;
79243;SDS011;68672;42.676;23.356;2023-05-24T10:03:10;3.70;;;3.15;;
79243;SDS011;68672;42.676;23.356;2023-05-24T10:05:45;6.05;;;3.45;;
79243;SDS011;68672;42.676;23.356;2023-05-24T10:08:11;5.63;;;3.28;;
79243;SDS011;68672;42.676;23.356;2023-05-24T10:10:39;3.55;;;3.25;;
79243;SDS011;68672;42.676;23.356;2023-05-24T10:13:05;5.00;;;3.40;;
79243;SDS011;68672;42.676;23.356;2023-05-24T10:15:31;3.85;;;3.45;;
79243;SDS011;68672;42.676;23.356;2023-05-24T10:17:57;3.70;;;3.00;;
79243;SDS011;68672;42.676;23.356;2023-05-24T10:20:26;6.25;;;3.50;;
79243;SDS011;68672;42.676;23.356;2023-05-24T10:22:53;3.97;;;3.10;;
79243;SDS011;68672;42.676;23.356;2023-05-24T10:25:23;5.47;;;3.33;;
79243;SDS011;68672;42.676;23.356;2023-05-24T10:28:02;3.50;;;2.97;;
79243;SDS011;68672;42.676;23.356;2023-05-24T10:30:33;5.88;;;3.50;;
79243;SDS011;68672;42.676;23.356;2023-05-24T10:33:13;4.28;;;3.28;;
79243;SDS011;68672;42.676;23.356;2023-05-24T10:35:40;4.03;;;3.28;;
79243;SDS011;68672;42.676;23.356;2023-05-24T10:38:07;5.95;;;3.60;;
79243;SDS011;68672;42.676;23.356;2023-05-24T10:40:33;3.45;;;2.70;;
79243;SDS011;68672;42.676;23.356;2023-05-24T10:43:00;4.07;;;2.95;;
79243;SDS011;68672;42.676;23.356;2023-05-24T10:50:41;5.22;;;3.58;;
79243;SDS011;68672;42.676;23.356;2023-05-24T10:53:10;4.25;;;2.90;;
79243;SDS011;68672;42.676;23.356;2023-05-24T10:58:43;4.93;;;3.42;;
79243;SDS011;68672;42.676;23.356;2023-05-24T11:01:27;3.10;;;2.58;;
79243;SDS011;68672;42.676;23.356;2023-05-24T11:04:14;3.50;;;3.08;;
79243;SDS011;68672;42.676;23.356;2023-05-24T11:07:01;3.78;;;3.22;;
79243;SDS011;68672;42.676;23.356;2023-05-24T11:09:27;3.67;;;2.90;;
79243;SDS011;68672;42.676;23.356;2023-05-24T11:11:54;3.53;;;2.95;;
79243;SDS011;68672;42.676;23.356;2023-05-24T11:14:45;3.65;;;3.05;;
79243;SDS011;68672;42.676;23.356;2023-05-24T11:17:16;3.85;;;2.90;;
79243;SDS011;68672;42.676;23.356;2023-05-24T11:22:16;3.95;;;3.10;;
79243;SDS011;68672;42.676;23.356;2023-05-24T11:24:44;3.80;;;2.97;;
79243;SDS011;68672;42.676;23.356;2023-05-24T11:27:14;3.47;;;2.95;;
79243;SDS011;68672;42.676;23.356;2023-05-24T11:29:40;6.10;;;3.58;;
79243;SDS011;68672;42.676;23.356;2023-05-24T11:32:07;5.78;;;3.20;;
79243;SDS011;68672;42.676;23.356;2023-05-24T11:34:39;4.78;;;2.75;;
79243;SDS011;68672;42.676;23.356;2023-05-24T11:37:05;3.67;;;3.00;;
79243;SDS011;68672;42.676;23.356;2023-05-24T11:39:32;4.10;;;2.67;;
79243;SDS011;68672;42.676;23.356;2023-05-24T11:42:04;3.67;;;3.28;;
79243;SDS011;68672;42.676;23.356;2023-05-24T11:44:31;4.13;;;2.97;;
79243;SDS011;68672;42.676;23.356;2023-05-24T11:46:58;4.13;;;2.90;;
79243;SDS011;68672;42.676;23.356;2023-05-24T11:49:30;3.60;;;2.78;;
79243;SDS011;68672;42.676;23.356;2023-05-24T11:51:57;3.38;;;2.95;;
79243;SDS011;68672;42.676;23.356;2023-05-24T11:54:23;3.85;;;3.03;;
79243;SDS011;68672;42.676;23.356;2023-05-24T11:56:50;4.15;;;3.10;;
79243;SDS011;68672;42.676;23.356;2023-05-24T11:59:21;3.83;;;2.75;;
79243;SDS011;68672;42.676;23.356;2023-05-24T12:01:48;5.25;;;2.97;;
79243;SDS011;68672;42.676;23.356;2023-05-24T12:04:15;3.88;;;2.80;;
79243;SDS011;68672;42.676;23.356;2023-05-24T12:06:41;4.32;;;3.00;;
79243;SDS011;68672;42.676;23.356;2023-05-24T12:09:10;3.30;;;2.80;;
79243;SDS011;68672;42.676;23.356;2023-05-24T12:11:41;4.15;;;3.15;;
79243;SDS011;68672;42.676;23.356;2023-05-24T12:14:13;4.28;;;3.30;;
79243;SDS011;68672;42.676;23.356;2023-05-24T12:16:41;5.15;;;4.65;;
79243;SDS011;68672;42.676;23.356;2023-05-24T12:19:12;4.15;;;3.30;;
79243;SDS011;68672;42.676;23.356;2023-05-24T12:21:45;3.83;;;3.28;;
79243;SDS011;68672;42.676;23.356;2023-05-24T12:24:15;3.80;;;2.88;;
79243;SDS011;68672;42.676;23.356;2023-05-24T12:26:44;4.32;;;3.42;;
79243;SDS011;68672;42.676;23.356;2023-05-24T12:29:11;4.15;;;3.67;;
79243;SDS011;68672;42.676;23.356;2023-05-24T12:31:40;3.90;;;3.13;;
79243;SDS011;68672;42.676;23.356;2023-05-24T12:34:27;4.38;;;3.55;;
79243;SDS011;68672;42.676;23.356;2023-05-24T12:36:53;5.72;;;3.30;;
79243;SDS011;68672;42.676;23.356;2023-05-24T12:39:20;4.05;;;3.22;;
79243;SDS011;68672;42.676;23.356;2023-05-24T12:41:56;4.63;;;3.20;;
79243;SDS011;68672;42.676;23.356;2023-05-24T12:44:23;4.28;;;3.45;;
79243;SDS011;68672;42.676;23.356;2023-05-24T12:46:53;3.70;;;3.00;;
79243;SDS011;68672;42.676;23.356;2023-05-24T12:49:20;5.20;;;3.20;;
79243;SDS011;68672;42.676;23.356;2023-05-24T12:51:46;5.63;;;3.35;;
79243;SDS011;68672;42.676;23.356;2023-05-24T12:54:11;3.97;;;3.08;;
79243;SDS011;68672;42.676;23.356;2023-05-24T12:56:37;4.15;;;3.33;;
79243;SDS011;68672;42.676;23.356;2023-05-24T12:59:05;5.30;;;4.68;;
79243;SDS011;68672;42.676;23.356;2023-05-24T13:01:31;3.63;;;3.13;;
79243;SDS011;68672;42.676;23.356;2023-05-24T13:03:56;5.50;;;3.30;;
79243;SDS011;68672;42.676;23.356;2023-05-24T13:06:25;4.43;;;3.67;;
79243;SDS011;68672;42.676;23.356;2023-05-24T13:08:50;5.13;;;3.20;;
79243;SDS011;68672;42.676;23.356;2023-05-24T13:11:19;4.22;;;3.53;;
79243;SDS011;68672;42.676;23.356;2023-05-24T13:13:51;4.47;;;3.30;;
79243;SDS011;68672;42.676;23.356;2023-05-24T13:16:17;4.45;;;3.55;;
79243;SDS011;68672;42.676;23.356;2023-05-24T13:18:43;3.70;;;3.30;;
79243;SDS011;68672;42.676;23.356;2023-05-24T13:21:10;4.00;;;3.17;;
79243;SDS011;68672;42.676;23.356;2023-05-24T13:23:41;6.43;;;3.50;;
79243;SDS011;68672;42.676;23.356;2023-05-24T13:26:07;3.83;;;3.03;;
79243;SDS011;68672;42.676;23.356;2023-05-24T13:28:33;4.13;;;3.30;;
79243;SDS011;68672;42.676;23.356;2023-05-24T13:30:58;5.45;;;3.10;;
79243;SDS011;68672;42.676;23.356;2023-05-24T13:33:24;3.95;;;3.10;;
79243;SDS011;68672;42.676;23.356;2023-05-24T13:35:50;3.78;;;3.38;;
79243;SDS011;68672;42.676;23.356;2023-05-24T13:38:19;4.45;;;3.30;;
79243;SDS011;68672;42.676;23.356;2023-05-24T13:40:45;3.63;;;3.13;;
79243;SDS011;68672;42.676;23.356;2023-05-24T13:43:11;4.65;;;3.70;;
79243;SDS011;68672;42.676;23.356;2023-05-24T13:45:36;4.32;;;2.75;;
79243;SDS011;68672;42.676;23.356;2023-05-24T13:48:02;5.20;;;3.80;;
79243;SDS011;68672;42.676;23.356;2023-05-24T13:50:34;4.10;;;3.60;;
79243;SDS011;68672;42.676;23.356;2023-05-24T13:53:00;4.85;;;3.22;;
79243;SDS011;68672;42.676;23.356;2023-05-24T13:55:30;4.50;;;3.83;;
79243;SDS011;68672;42.676;23.356;2023-05-24T13:57:58;4.00;;;3.20;;
79243;SDS011;68672;42.676;23.356;2023-05-24T14:00:24;5.45;;;3.45;;
79243;SDS011;68672;42.676;23.356;2023-05-24T14:02:52;5.65;;;4.47;;
79243;SDS011;68672;42.676;23.356;2023-05-24T14:05:19;4.10;;;3.67;;
79243;SDS011;68672;42.676;23.356;2023-05-24T14:07:45;5.50;;;3.97;;
79243;SDS011;68672;42.676;23.356;2023-05-24T14:10:11;4.55;;;3.72;;
79243;SDS011;68672;42.676;23.356;2023-05-24T14:12:36;4.72;;;3.55;;
79243;SDS011;68672;42.676;23.356;2023-05-24T14:15:03;7.50;;;4.10;;
79243;SDS011;68672;42.676;23.356;2023-05-24T14:17:30;4.97;;;3.38;;
79243;SDS011;68672;42.676;23.356;2023-05-24T14:19:58;4.65;;;3.60;;
79243;SDS011;68672;42.676;23.356;2023-05-24T14:22:24;4.93;;;3.63;;
79243;SDS011;68672;42.676;23.356;2023-05-24T14:27:18;4.68;;;3.13;;
79243;SDS011;68672;42.676;23.356;2023-05-24T14:29:44;4.07;;;3.40;;
79243;SDS011;68672;42.676;23.356;2023-05-24T14:32:12;5.78;;;3.53;;
79243;SDS011;68672;42.676;23.356;2023-05-24T14:34:40;4.35;;;3.90;;
79243;SDS011;68672;42.676;23.356;2023-05-24T14:37:06;4.20;;;3.47;;
79243;SDS011;68672;42.676;23.356;2023-05-24T14:39:31;4.43;;;3.42;;
79243;SDS011;68672;42.676;23.356;2023-05-24T14:41:56;4.50;;;3.50;;
79243;SDS011;68672;42.676;23.356;2023-05-24T14:44:22;5.30;;;3.72;;
79243;SDS011;68672;42.676;23.356;2023-05-24T14:46:47;4.45;;;3.33;;
79243;SDS011;68672;42.676;23.356;2023-05-24T14:49:13;3.83;;;3.00;;
79243;SDS011;68672;42.676;23.356;2023-05-24T14:51:38;5.28;;;3.63;;
79243;SDS011;68672;42.676;23.356;2023-05-24T14:54:04;4.70;;;3.78;;
79243;SDS011;68672;42.676;23.356;2023-05-24T14:56:29;6.25;;;4.22;;
79243;SDS011;68672;42.676;23.356;2023-05-24T14:58:55;4.30;;;3.45;;
79243;SDS011;68672;42.676;23.356;2023-05-24T15:01:21;6.22;;;3.40;;
79243;SDS011;68672;42.676;23.356;2023-05-24T15:03:46;4.47;;;3.38;;
79243;SDS011;68672;42.676;23.356;2023-05-24T15:06:12;5.13;;;3.60;;
79243;SDS011;68672;42.676;23.356;2023-05-24T15:08:37;4.95;;;3.60;;
79243;SDS011;68672;42.676;23.356;2023-05-24T15:11:03;5.30;;;3.67;;
79243;SDS011;68672;42.676;23.356;2023-05-24T15:13:31;4.53;;;3.53;;